SAS2689 ESSA-LIMC
Flight info
| Callsign | SAS2689 |
|---|---|
| Flight time | N/A |
| Altitude | 38000 |
| Route | NOSLI N850 ABAMA DCT MAKEL DCT TOLGI DCT BOMBI DCT GIGET DCT ABUKA DCT KRH DCT NATOR DCT TRA DCT RIPUS DCT GERSA DCT SOSON DCT DEGAD Z424 RIXUV |
| Aircraft | A20N/M-SDE2E3FGHIRWXY/LB1 |
Departure
| Time | 2026-05-06 19:38 |
|---|---|
| Airport | Stockholm-Arlanda Airport (ESSA) |
Arrival
| Time | N/A |
|---|---|
| Airport | Milan Malpensa International Airport (LIMC) |
| Time | Latitude | Longitude | Altitude | Speed | Heading |
|---|---|---|---|---|---|
| 2026-05-06 19:17 | 59.65396 | 17.93514 | 111 ft | 0 kts | 76° |
| 2026-05-06 19:28 | 59.65394 | 17.93498 | 111 ft | 2 kts | 77° |
| 2026-05-06 19:28 | 59.65392 | 17.93484 | 110 ft | 4 kts | 76° |
| 2026-05-06 19:28 | 59.65383 | 17.93435 | 111 ft | 4 kts | 56° |
| 2026-05-06 19:28 | 59.65367 | 17.93400 | 111 ft | 3 kts | 25° |
| 2026-05-06 19:29 | 59.65348 | 17.93393 | 111 ft | 3 kts | 338° |
| 2026-05-06 19:29 | 59.65330 | 17.93407 | 108 ft | 2 kts | 346° |
| 2026-05-06 19:29 | 59.65329 | 17.93407 | 109 ft | 0 kts | 346° |
| 2026-05-06 19:31 | 59.65335 | 17.93404 | 111 ft | 3 kts | 346° |
| 2026-05-06 19:32 | 59.65375 | 17.93385 | 111 ft | 9 kts | 345° |
| 2026-05-06 19:32 | 59.65453 | 17.93347 | 110 ft | 14 kts | 349° |
| 2026-05-06 19:32 | 59.65523 | 17.93257 | 111 ft | 12 kts | 280° |
| 2026-05-06 19:32 | 59.65506 | 17.93102 | 111 ft | 12 kts | 255° |
| 2026-05-06 19:33 | 59.65483 | 17.92942 | 110 ft | 12 kts | 249° |
| 2026-05-06 19:33 | 59.65450 | 17.92778 | 111 ft | 13 kts | 244° |
| 2026-05-06 19:33 | 59.65455 | 17.92611 | 107 ft | 15 kts | 320° |
| 2026-05-06 19:33 | 59.65563 | 17.92513 | 104 ft | 19 kts | 344° |
| 2026-05-06 19:34 | 59.65693 | 17.92448 | 103 ft | 19 kts | 345° |
| 2026-05-06 19:34 | 59.65819 | 17.92441 | 105 ft | 18 kts | 11° |
| 2026-05-06 19:34 | 59.65932 | 17.92482 | 108 ft | 15 kts | 9° |
| 2026-05-06 19:34 | 59.65947 | 17.92488 | 108 ft | 0 kts | 11° |
| 2026-05-06 19:35 | 59.65950 | 17.92489 | 108 ft | 3 kts | 11° |
| 2026-05-06 19:35 | 59.65991 | 17.92504 | 109 ft | 8 kts | 10° |
| 2026-05-06 19:35 | 59.66055 | 17.92527 | 110 ft | 11 kts | 10° |
| 2026-05-06 19:35 | 59.66145 | 17.92559 | 110 ft | 16 kts | 11° |
| 2026-05-06 19:36 | 59.66269 | 17.92604 | 116 ft | 20 kts | 10° |
| 2026-05-06 19:36 | 59.66392 | 17.92648 | 119 ft | 17 kts | 10° |
| 2026-05-06 19:36 | 59.66504 | 17.92626 | 122 ft | 13 kts | 341° |
| 2026-05-06 19:36 | 59.66591 | 17.92566 | 122 ft | 14 kts | 335° |
| 2026-05-06 19:37 | 59.66612 | 17.92396 | 123 ft | 15 kts | 242° |
| 2026-05-06 19:37 | 59.66567 | 17.92349 | 123 ft | 0 kts | 192° |
| 2026-05-06 19:37 | 59.66566 | 17.92349 | 123 ft | 0 kts | 192° |
| 2026-05-06 19:37 | 59.66477 | 17.92314 | 118 ft | 45 kts | 189° |
| 2026-05-06 19:38 | 59.65659 | 17.92022 | 108 ft | 128 kts | 192° |
| 2026-05-06 19:38 | 59.64654 | 17.91629 | 389 ft | 148 kts | 191° |
| 2026-05-06 19:38 | 59.63817 | 17.91263 | 1362 ft | 125 kts | 190° |
| 2026-05-06 19:38 | 59.62986 | 17.90961 | 2142 ft | 120 kts | 188° |
| 2026-05-06 19:39 | 59.62135 | 17.90709 | 2617 ft | 128 kts | 187° |
| 2026-05-06 19:39 | 59.61225 | 17.90205 | 2923 ft | 145 kts | 208° |
| 2026-05-06 19:39 | 59.60430 | 17.88716 | 3122 ft | 171 kts | 233° |
| 2026-05-06 19:39 | 59.59860 | 17.86491 | 3482 ft | 192 kts | 243° |
| 2026-05-06 19:40 | 59.59271 | 17.83963 | 3893 ft | 212 kts | 243° |
| 2026-05-06 19:40 | 59.58617 | 17.81208 | 4369 ft | 230 kts | 241° |
| 2026-05-06 19:40 | 59.57847 | 17.78326 | 4939 ft | 247 kts | 242° |
| 2026-05-06 19:40 | 59.56948 | 17.75285 | 5474 ft | 263 kts | 231° |
| 2026-05-06 19:41 | 59.55579 | 17.72861 | 6389 ft | 266 kts | 211° |
| 2026-05-06 19:41 | 59.53923 | 17.71187 | 7291 ft | 269 kts | 207° |
| 2026-05-06 19:41 | 59.52232 | 17.69542 | 8201 ft | 272 kts | 208° |
| 2026-05-06 19:41 | 59.50527 | 17.67872 | 9095 ft | 275 kts | 208° |
| 2026-05-06 19:42 | 59.48804 | 17.66179 | 10016 ft | 278 kts | 209° |
| 2026-05-06 19:42 | 59.47038 | 17.64440 | 10569 ft | 293 kts | 209° |
| 2026-05-06 19:42 | 59.45137 | 17.62564 | 10852 ft | 316 kts | 209° |
| 2026-05-06 19:42 | 59.43126 | 17.60588 | 11348 ft | 328 kts | 208° |
| 2026-05-06 19:43 | 59.41110 | 17.58617 | 12174 ft | 329 kts | 208° |
| 2026-05-06 19:43 | 59.39023 | 17.56577 | 13003 ft | 332 kts | 208° |
| 2026-05-06 19:43 | 59.36953 | 17.54554 | 13813 ft | 335 kts | 208° |
| 2026-05-06 19:43 | 59.34857 | 17.52507 | 14525 ft | 338 kts | 208° |
| 2026-05-06 19:44 | 59.32767 | 17.50468 | 15237 ft | 340 kts | 208° |
| 2026-05-06 19:44 | 59.30643 | 17.48401 | 15946 ft | 343 kts | 209° |
| 2026-05-06 19:44 | 59.28500 | 17.46317 | 16640 ft | 346 kts | 209° |
| 2026-05-06 19:44 | 59.26337 | 17.44216 | 17340 ft | 348 kts | 209° |
| 2026-05-06 19:45 | 59.24162 | 17.42107 | 18029 ft | 351 kts | 209° |
| 2026-05-06 19:45 | 59.21963 | 17.39978 | 18659 ft | 353 kts | 209° |
| 2026-05-06 19:45 | 59.19752 | 17.37841 | 19293 ft | 354 kts | 209° |
| 2026-05-06 19:45 | 59.17542 | 17.35709 | 19924 ft | 356 kts | 210° |
| 2026-05-06 19:46 | 59.15316 | 17.33564 | 20527 ft | 358 kts | 210° |
| 2026-05-06 19:46 | 59.13075 | 17.31408 | 21141 ft | 359 kts | 210° |
| 2026-05-06 19:46 | 59.10832 | 17.29253 | 21746 ft | 361 kts | 210° |
| 2026-05-06 19:46 | 59.08577 | 17.27048 | 22340 ft | 362 kts | 213° |
| 2026-05-06 19:47 | 59.06461 | 17.24468 | 22926 ft | 361 kts | 219° |
| 2026-05-06 19:47 | 59.04491 | 17.21411 | 23500 ft | 362 kts | 223° |
| 2026-05-06 19:47 | 59.02561 | 17.18254 | 24002 ft | 363 kts | 223° |
| 2026-05-06 19:47 | 59.00623 | 17.15102 | 24498 ft | 364 kts | 223° |
| 2026-05-06 19:48 | 58.98671 | 17.11944 | 24999 ft | 365 kts | 223° |
| 2026-05-06 19:48 | 58.96718 | 17.08797 | 25470 ft | 366 kts | 222° |
| 2026-05-06 19:48 | 58.94749 | 17.05633 | 25934 ft | 368 kts | 222° |
| 2026-05-06 19:48 | 58.92777 | 17.02468 | 26390 ft | 369 kts | 222° |
| 2026-05-06 19:49 | 58.90793 | 16.99290 | 26825 ft | 371 kts | 222° |
| 2026-05-06 19:49 | 58.88799 | 16.96103 | 27262 ft | 372 kts | 222° |
| 2026-05-06 19:49 | 58.87477 | 16.93992 | 27540 ft | 373 kts | 222° |
| 2026-05-06 19:49 | 58.84797 | 16.89717 | 28095 ft | 375 kts | 222° |
| 2026-05-06 19:50 | 58.82807 | 16.86550 | 28477 ft | 376 kts | 222° |
| 2026-05-06 19:50 | 58.80784 | 16.83335 | 28838 ft | 378 kts | 222° |
| 2026-05-06 19:50 | 58.78752 | 16.80112 | 29195 ft | 379 kts | 221° |
| 2026-05-06 19:50 | 58.77372 | 16.77926 | 29448 ft | 380 kts | 221° |
| 2026-05-06 19:51 | 58.75327 | 16.74690 | 29805 ft | 382 kts | 221° |
| 2026-05-06 19:51 | 58.73282 | 16.71459 | 30142 ft | 383 kts | 221° |